KHUF/HUF METAR and TAF weather

Enter ICAO airport designator
Station Type Date Time Source
KHUF METAR 2019/10/15 21:53 UTC NOAA

KHUF 152153Z 22009KT 10SM OVC022 19/14 A2982 RMK AO2 SLP098 T01890144


Station Type Date Time Source
KHUF Decoded METAR 2019/10/15 21:53 UTC NOAA

TERRE HAUTE INTERNATIONAL -HULMAN FLD, IN, United States (KHUF) 39-27N 087-19W 179M
Oct 15, 2019 - 05:53 PM EDT / 2019.10.15 2153 UTC
Wind: from the SW (220 degrees) at 10 MPH (9 KT):0
Visibility: 10 mile(s):0
Sky conditions: overcast
Temperature: 66.0 F (18.9 C)
Dew Point: 57.9 F (14.4 C)
Relative Humidity: 75%
Pressure (altimeter): 29.82 in. Hg (1009 hPa)
ob: KHUF 152153Z 22009KT 10SM OVC022 19/14 A2982 RMK AO2 SLP098 T01890144
cycle: 22

Station Type Date Time Source
KHUF TAF 2019/10/15 18:24 UTC NOAA

TAF KHUF 151723Z 1518/1618 20015G22KT P6SM OVC035
FM152000 21010G19KT P6SM VCSH BKN024
FM160100 24008KT 6SM -SHRA BR VCTS OVC016CB
FM160400 29010KT P6SM VCSH BKN060
FM161400 30014G22KT P6SM BKN025

Example: see airport list